Time;durP1;ratioP1;P1;durP2;ratioP2;P2;SDS_P1;SDS_P2;PMS_P1;PMS_P2;Temp;Humidity;BMP_temperature;BMP_pressure;BME280_temperature;BME280_humidity;BME280_pressure;Samples;Min_cycle;Max_cycle;Signal;HPM_P1;HPM_P2
2021/06/25 00:01:00;;;;;;;7.03;5.07;;;17.10;98.30;;;;;;5208648;22;20426;-81
2021/06/25 00:03:04;;;;;;;5.23;4.13;;;17.00;98.30;;;;;;5199912;22;20446;-81
2021/06/25 00:05:09;;;;;;;7.57;5.03;;;17.00;98.30;;;;;;5203110;22;20453;-81
2021/06/25 00:07:12;;;;;;;5.40;4.50;;;17.00;98.30;;;;;;5191391;22;20427;-80
2021/06/25 00:09:15;;;;;;;5.03;4.20;;;17.00;98.30;;;;;;5190124;22;20922;-81
2021/06/25 00:11:18;;;;;;;5.53;5.03;;;16.90;98.30;;;;;;5191264;22;21001;-81
2021/06/25 00:13:22;;;;;;;7.00;4.50;;;16.90;98.30;;;;;;5189964;22;20451;-82
2021/06/25 00:15:26;;;;;;;5.23;4.70;;;16.90;98.30;;;;;;5191174;22;20446;-82
2021/06/25 00:17:28;;;;;;;5.23;4.63;;;16.90;98.30;;;;;;5199513;22;20941;-80
2021/06/25 00:19:32;;;;;;;6.53;5.10;;;16.90;98.30;;;;;;5192232;22;20431;-81
2021/06/25 00:21:35;;;;;;;6.80;5.00;;;16.70;98.30;;;;;;5200025;22;21016;-81
2021/06/25 00:23:38;;;;;;;7.77;5.43;;;16.70;98.30;;;;;;5200451;22;20509;-81
2021/06/25 00:25:41;;;;;;;8.03;5.77;;;16.60;98.30;;;;;;5199966;22;20473;-79
2021/06/25 00:27:44;;;;;;;6.90;5.33;;;16.60;98.30;;;;;;5191560;22;20465;-81
2021/06/25 00:29:48;;;;;;;6.83;6.00;;;16.50;98.30;;;;;;5192019;22;20775;-81
2021/06/25 00:31:52;;;;;;;6.80;5.10;;;16.60;98.30;;;;;;5191430;22;20455;-81
2021/06/25 00:33:55;;;;;;;6.83;4.60;;;16.60;98.30;;;;;;5191253;22;20909;-81
2021/06/25 00:35:57;;;;;;;6.67;4.90;;;16.60;98.30;;;;;;5190817;22;21268;-81
2021/06/25 00:38:00;;;;;;;5.83;5.23;;;16.70;98.30;;;;;;5198915;22;20469;-82
2021/06/25 00:40:04;;;;;;;6.50;5.00;;;16.70;98.30;;;;;;5190826;22;20441;-82
2021/06/25 00:42:08;;;;;;;7.03;5.97;;;16.80;98.30;;;;;;5199188;22;20443;-82
2021/06/25 00:44:16;;;;;;;7.27;5.60;;;16.80;98.30;;;;;;5198930;22;20457;-81
2021/06/25 00:46:20;;;;;;;6.20;5.40;;;16.80;98.30;;;;;;5191314;22;20441;-82
2021/06/25 00:48:23;;;;;;;6.07;5.47;;;16.80;98.30;;;;;;5191266;22;20418;-84
2021/06/25 00:50:29;;;;;;;8.63;5.90;;;16.70;98.30;;;;;;5199807;22;20931;-83
2021/06/25 00:52:33;;;;;;;8.77;7.07;;;16.70;98.30;;;;;;5199684;22;20804;-82
2021/06/25 00:54:36;;;;;;;7.03;5.93;;;16.70;98.30;;;;;;5191543;22;20427;-81
2021/06/25 00:56:39;;;;;;;11.50;6.30;;;16.70;98.30;;;;;;5191796;22;20431;-82
2021/06/25 00:58:43;;;;;;;7.97;5.43;;;16.60;98.30;;;;;;5199808;22;20415;-82
2021/06/25 01:00:47;;;;;;;7.40;6.33;;;16.70;98.30;;;;;;5200221;22;20501;-82
2021/06/25 01:02:52;;;;;;;8.53;6.20;;;16.70;98.30;;;;;;5192297;22;20443;-82
2021/06/25 01:04:55;;;;;;;11.40;6.83;;;16.70;98.30;;;;;;5193433;22;20959;-82
2021/06/25 01:06:57;;;;;;;10.03;6.77;;;16.70;98.30;;;;;;5200959;22;20419;-81
2021/06/25 01:09:02;;;;;;;9.43;6.77;;;16.70;98.30;;;;;;5190372;22;20427;-81
2021/06/25 01:11:05;;;;;;;7.87;6.70;;;16.70;98.30;;;;;;5190603;22;20426;-82
2021/06/25 01:13:09;;;;;;;8.17;6.70;;;16.60;98.30;;;;;;5190691;22;20936;-82
2021/06/25 01:15:14;;;;;;;8.53;7.73;;;16.50;98.30;;;;;;5198808;22;20426;-81
2021/06/25 01:17:31;;;;;;;8.83;7.83;;;16.40;98.30;;;;;;5190366;22;20431;-82
2021/06/25 01:19:35;;;;;;;9.10;6.87;;;16.30;98.30;;;;;;5199142;22;20453;-81
2021/06/25 01:21:40;;;;;;;8.50;6.93;;;16.30;98.30;;;;;;5200666;22;20746;-81
2021/06/25 01:23:44;;;;;;;8.60;7.30;;;16.20;98.30;;;;;;5192379;22;20427;-82
2021/06/25 01:25:46;;;;;;;9.87;7.47;;;16.20;98.30;;;;;;5191463;22;20447;-81
2021/06/25 01:27:52;;;;;;;8.10;7.20;;;16.20;98.30;;;;;;5190789;22;20430;-82
2021/06/25 01:29:57;;;;;;;9.40;7.03;;;16.10;98.30;;;;;;5192052;22;20759;-82
2021/06/25 01:31:59;;;;;;;9.87;7.17;;;15.90;98.30;;;;;;5199520;22;20443;-82
2021/06/25 01:34:04;;;;;;;10.20;9.20;;;15.70;98.30;;;;;;5191648;22;20433;-82
2021/06/25 01:36:09;;;;;;;12.93;7.63;;;15.50;98.30;;;;;;5199046;22;20449;-82
2021/06/25 01:38:14;;;;;;;9.10;8.20;;;15.50;98.30;;;;;;5190906;22;20434;-82
2021/06/25 01:40:21;;;;;;;9.87;8.00;;;15.40;98.30;;;;;;5190763;22;20440;-81
2021/06/25 01:42:24;;;;;;;9.50;7.90;;;15.20;98.30;;;;;;5190939;22;20451;-82
2021/06/25 01:44:27;;;;;;;10.53;8.63;;;15.00;98.30;;;;;;5191354;22;20427;-82
2021/06/25 01:46:30;;;;;;;13.87;9.00;;;14.80;98.30;;;;;;5191219;22;20959;-81
2021/06/25 01:48:33;;;;;;;10.00;8.20;;;14.60;98.30;;;;;;5190313;22;20434;-81
2021/06/25 01:50:39;;;;;;;9.10;7.93;;;14.60;98.30;;;;;;5191539;22;20865;-82
2021/06/25 01:52:45;;;;;;;12.10;9.33;;;14.60;98.30;;;;;;5199086;22;20439;-81
2021/06/25 01:54:49;;;;;;;10.77;9.00;;;14.90;98.30;;;;;;5190624;22;20456;-81
2021/06/25 01:56:52;;;;;;;11.37;8.80;;;15.00;98.30;;;;;;5199566;22;20441;-81
2021/06/25 01:58:55;;;;;;;11.07;8.87;;;15.10;98.30;;;;;;5190931;22;20430;-82
2021/06/25 02:01:09;;;;;;;11.53;8.97;;;15.10;98.30;;;;;;5191176;22;20987;-81
2021/06/25 02:03:12;;;;;;;11.93;9.70;;;14.90;98.30;;;;;;5199173;22;20447;-82
2021/06/25 02:05:16;;;;;;;12.00;9.23;;;14.90;98.30;;;;;;5191593;22;20442;-81
2021/06/25 02:07:19;;;;;;;11.10;8.77;;;14.90;98.30;;;;;;5192693;22;20461;-81
2021/06/25 02:09:22;;;;;;;13.70;10.20;;;14.80;98.30;;;;;;5192598;22;20431;-82
2021/06/25 02:11:26;;;;;;;13.37;10.20;;;14.70;98.30;;;;;;5193624;22;20427;-81
2021/06/25 02:13:29;;;;;;;13.77;9.87;;;14.70;98.30;;;;;;5192292;22;20453;-80
2021/06/25 02:15:32;;;;;;;10.90;8.80;;;14.80;98.30;;;;;;5192195;22;20963;-81
2021/06/25 02:17:35;;;;;;;12.50;9.53;;;14.90;98.30;;;;;;5200263;22;20441;-82
2021/06/25 02:19:38;;;;;;;11.97;9.27;;;15.00;98.30;;;;;;5192551;22;20433;-81
2021/06/25 02:21:41;;;;;;;12.67;9.57;;;14.80;98.30;;;;;;5192358;22;20427;-81
2021/06/25 02:23:44;;;;;;;14.43;10.37;;;14.60;98.30;;;;;;5192184;22;21206;-82
2021/06/25 02:25:47;;;;;;;12.80;9.37;;;14.60;98.30;;;;;;5192537;22;21182;-81
2021/06/25 02:27:52;;;;;;;10.97;9.70;;;14.70;98.30;;;;;;5192297;22;20476;-82
2021/06/25 02:29:55;;;;;;;12.57;9.67;;;14.90;98.30;;;;;;5192225;22;20453;-81
2021/06/25 02:31:58;;;;;;;15.17;10.87;;;15.00;98.30;;;;;;5192245;22;20530;-81
2021/06/25 02:34:01;;;;;;;12.33;8.90;;;15.10;98.30;;;;;;5192048;22;20426;-82
2021/06/25 02:36:04;;;;;;;12.03;9.17;;;15.10;98.30;;;;;;5192550;22;21011;-81
2021/06/25 02:38:07;;;;;;;13.23;9.00;;;15.10;98.30;;;;;;5199945;22;20430;-82
2021/06/25 02:40:12;;;;;;;15.00;9.07;;;15.20;98.30;;;;;;5192068;22;20422;-81
2021/06/25 02:42:15;;;;;;;13.20;9.67;;;15.30;98.30;;;;;;5200684;22;20446;-81
2021/06/25 02:44:20;;;;;;;12.03;10.40;;;15.50;98.30;;;;;;5200659;22;20423;-82
2021/06/25 02:46:23;;;;;;;12.37;9.60;;;15.50;98.30;;;;;;5200217;22;20442;-82
2021/06/25 02:48:26;;;;;;;14.50;9.50;;;15.60;98.30;;;;;;5192478;22;20430;-82
2021/06/25 02:50:29;;;;;;;11.70;9.80;;;15.60;98.30;;;;;;5200486;22;20427;-81
2021/06/25 02:52:33;;;;;;;15.07;10.00;;;15.70;98.30;;;;;;5191268;22;20443;-82
2021/06/25 02:54:36;;;;;;;12.60;9.90;;;15.70;98.30;;;;;;5201080;22;20419;-82
2021/06/25 02:56:39;;;;;;;16.23;11.87;;;15.70;98.30;;;;;;5192888;22;20506;-82
2021/06/25 02:58:42;;;;;;;17.13;12.60;;;15.70;98.30;;;;;;5200749;22;20423;-82
2021/06/25 03:00:47;;;;;;;21.00;14.73;;;15.70;98.30;;;;;;5192157;22;20427;-82
2021/06/25 03:02:50;;;;;;;17.43;12.33;;;15.70;98.30;;;;;;5194228;22;20446;-82
2021/06/25 03:04:55;;;;;;;14.57;11.90;;;15.70;98.30;;;;;;5193027;22;20964;-82
2021/06/25 03:06:58;;;;;;;16.40;12.77;;;15.70;98.30;;;;;;5201500;22;20424;-82
2021/06/25 03:09:01;;;;;;;18.43;15.67;;;15.70;98.30;;;;;;5200999;22;20982;-82
2021/06/25 03:11:04;;;;;;;26.00;19.77;;;15.70;98.30;;;;;;5192843;22;20473;-82
2021/06/25 03:13:07;;;;;;;34.47;26.10;;;15.80;98.30;;;;;;5192899;22;20840;-82
2021/06/25 03:15:11;;;;;;;36.30;24.60;;;15.90;98.30;;;;;;5195176;22;20433;-82
2021/06/25 03:17:15;;;;;;;28.50;19.90;;;16.00;98.30;;;;;;5190231;22;21380;-81
2021/06/25 03:19:18;;;;;;;17.83;14.90;;;16.00;98.30;;;;;;5190751;22;20485;-80
2021/06/25 03:21:21;;;;;;;14.73;11.80;;;16.00;98.30;;;;;;5191223;22;20431;-81
2021/06/25 03:23:24;;;;;;;20.23;12.60;;;16.00;98.30;;;;;;5191485;22;20836;-81
2021/06/25 03:25:27;;;;;;;26.33;13.40;;;16.00;98.30;;;;;;5191106;22;20480;-81
2021/06/25 03:27:30;;;;;;;24.57;14.50;;;16.00;98.30;;;;;;5190751;22;20443;-82
2021/06/25 03:29:33;;;;;;;24.80;13.90;;;16.10;98.30;;;;;;5191373;22;20431;-82
2021/06/25 03:31:36;;;;;;;19.00;14.07;;;16.10;98.30;;;;;;5190983;22;20934;-81
2021/06/25 03:33:41;;;;;;;25.73;20.17;;;16.10;98.30;;;;;;5191180;22;20430;-82
2021/06/25 03:35:44;;;;;;;24.50;19.93;;;16.10;98.30;;;;;;5191330;22;20423;-81
2021/06/25 03:37:47;;;;;;;25.00;19.53;;;16.10;98.30;;;;;;5199488;22;20962;-82
2021/06/25 03:39:50;;;;;;;20.40;14.43;;;16.10;98.30;;;;;;5191130;22;20963;-81
2021/06/25 03:41:53;;;;;;;22.53;17.03;;;16.10;98.30;;;;;;5191201;22;20450;-81
2021/06/25 03:43:56;;;;;;;22.23;17.17;;;16.10;98.30;;;;;;5191204;22;20430;-81
2021/06/25 03:45:59;;;;;;;21.97;16.00;;;16.10;98.30;;;;;;5191022;22;20501;-81
2021/06/25 03:48:03;;;;;;;16.07;13.67;;;16.10;98.30;;;;;;5190591;22;20427;-82
2021/06/25 03:50:09;;;;;;;15.70;12.40;;;16.00;98.30;;;;;;5199666;22;20534;-82
2021/06/25 03:52:12;;;;;;;14.83;11.70;;;15.90;98.30;;;;;;5199341;22;20450;-82
2021/06/25 03:54:15;;;;;;;15.13;11.87;;;16.00;98.30;;;;;;5191366;22;20431;-82
2021/06/25 03:56:18;;;;;;;17.23;12.07;;;16.00;98.30;;;;;;5191194;22;20488;-83
2021/06/25 03:58:21;;;;;;;13.73;11.47;;;16.10;98.30;;;;;;5200248;22;20429;-82
2021/06/25 04:00:24;;;;;;;15.60;12.23;;;16.00;98.30;;;;;;5192216;22;20431;-83
2021/06/25 04:02:28;;;;;;;15.50;12.50;;;15.90;98.30;;;;;;5200190;22;20504;-83
2021/06/25 04:04:31;;;;;;;19.53;13.70;;;15.80;98.30;;;;;;5192040;22;20427;-83
2021/06/25 04:06:35;;;;;;;17.10;12.30;;;15.80;98.30;;;;;;5200253;22;20447;-82
2021/06/25 04:08:39;;;;;;;16.10;11.23;;;15.70;98.30;;;;;;5190799;22;20423;-82
2021/06/25 04:10:42;;;;;;;14.70;10.90;;;15.60;98.30;;;;;;5191584;22;20740;-83
2021/06/25 04:12:45;;;;;;;14.53;11.20;;;15.40;98.30;;;;;;5191531;22;20446;-82
2021/06/25 04:14:48;;;;;;;15.30;11.43;;;15.30;98.30;;;;;;5192124;22;20427;-83
2021/06/25 04:16:52;;;;;;;16.20;12.10;;;15.30;98.30;;;;;;5191691;22;20423;-83
2021/06/25 04:18:55;;;;;;;14.57;10.90;;;15.20;98.30;;;;;;5192668;22;20473;-81
2021/06/25 04:20:59;;;;;;;12.20;10.70;;;15.10;98.30;;;;;;5200318;22;20505;-82
2021/06/25 04:23:03;;;;;;;21.23;11.97;;;15.10;98.30;;;;;;5190920;22;20477;-82
2021/06/25 04:25:07;;;;;;;14.80;11.80;;;15.00;98.30;;;;;;5198990;22;20497;-82
2021/06/25 04:27:10;;;;;;;14.53;12.00;;;15.00;98.30;;;;;;5190455;22;20954;-82
2021/06/25 04:29:14;;;;;;;14.73;10.47;;;15.00;98.30;;;;;;5192791;22;20434;-82
2021/06/25 04:31:17;;;;;;;15.93;11.67;;;15.10;98.30;;;;;;5199402;22;20430;-83
2021/06/25 04:33:20;;;;;;;13.60;10.13;;;15.00;98.30;;;;;;5191499;22;20481;-82
2021/06/25 04:35:24;;;;;;;14.30;11.20;;;15.00;98.30;;;;;;5200102;22;20442;-82
2021/06/25 04:37:26;;;;;;;13.50;10.83;;;15.00;98.30;;;;;;5191338;22;20427;-82
2021/06/25 04:39:31;;;;;;;15.87;10.47;;;14.80;98.30;;;;;;5191533;22;20958;-82
2021/06/25 04:41:34;;;;;;;15.07;10.97;;;14.80;98.30;;;;;;5191083;22;20423;-82
2021/06/25 04:43:37;;;;;;;15.63;11.23;;;14.80;98.30;;;;;;5195707;22;20469;-82
2021/06/25 04:45:41;;;;;;;13.10;10.40;;;14.70;98.30;;;;;;5200355;22;20791;-82
2021/06/25 04:47:44;;;;;;;16.10;11.30;;;14.80;98.30;;;;;;5199808;22;20446;-82
2021/06/25 04:49:47;;;;;;;15.93;12.80;;;14.90;98.30;;;;;;5200484;22;20427;-82
2021/06/25 04:51:50;;;;;;;15.77;11.37;;;14.90;98.30;;;;;;5200136;22;20450;-82
2021/06/25 04:53:53;;;;;;;13.60;11.23;;;14.90;98.30;;;;;;5191938;22;20461;-81
2021/06/25 04:55:58;;;;;;;15.17;11.10;;;14.90;98.30;;;;;;5192314;22;20430;-82
2021/06/25 04:58:01;;;;;;;14.50;11.00;;;14.90;98.30;;;;;;5200014;22;20492;-82
2021/06/25 05:00:06;;;;;;;14.43;11.80;;;15.00;98.30;;;;;;5191641;22;20518;-82
2021/06/25 05:02:09;;;;;;;20.07;12.10;;;15.00;98.30;;;;;;5199806;22;20983;-83
2021/06/25 05:04:12;;;;;;;14.77;12.03;;;15.20;98.30;;;;;;5199425;22;20419;-82
2021/06/25 05:06:15;;;;;;;16.73;11.40;;;15.40;98.30;;;;;;5199556;22;20489;-82
2021/06/25 05:08:18;;;;;;;13.60;10.90;;;15.50;98.30;;;;;;5198892;22;20443;-83
2021/06/25 05:10:21;;;;;;;16.17;12.00;;;15.60;98.30;;;;;;5191602;22;20480;-83
2021/06/25 05:12:30;;;;;;;18.47;12.73;;;15.70;98.30;;;;;;5199363;22;20470;-82
2021/06/25 05:14:33;;;;;;;17.90;12.47;;;15.80;98.30;;;;;;5200073;22;20803;-82
2021/06/25 05:16:37;;;;;;;19.00;12.70;;;16.00;98.30;;;;;;5199022;22;20422;-82
2021/06/25 05:18:40;;;;;;;17.13;13.00;;;16.10;98.30;;;;;;5198698;22;20513;-82
2021/06/25 05:20:55;;;;;;;15.43;10.90;;;16.20;98.30;;;;;;5199566;22;20430;-83
2021/06/25 05:22:58;;;;;;;16.57;12.93;;;16.20;98.30;;;;;;5199651;22;21014;-82
2021/06/25 05:25:01;;;;;;;17.03;12.20;;;16.10;98.30;;;;;;5191244;22;20450;-82
2021/06/25 05:27:05;;;;;;;19.07;13.07;;;16.00;98.30;;;;;;5199312;22;20484;-82
2021/06/25 05:29:10;;;;;;;16.03;12.93;;;15.90;98.30;;;;;;5193112;22;20422;-82
2021/06/25 05:31:13;;;;;;;20.00;13.47;;;16.00;98.30;;;;;;5202383;22;20507;-82
2021/06/25 05:33:16;;;;;;;19.87;13.00;;;16.10;98.30;;;;;;5201411;22;20504;-82
2021/06/25 05:35:19;;;;;;;14.43;12.30;;;16.20;98.30;;;;;;5201980;22;20429;-83
2021/06/25 05:37:22;;;;;;;15.27;12.63;;;16.20;98.30;;;;;;5194668;22;20423;-83
2021/06/25 05:39:25;;;;;;;25.50;18.20;;;16.30;98.30;;;;;;5202558;22;20911;-81
2021/06/25 05:41:28;;;;;;;36.77;29.27;;;16.40;98.30;;;;;;5204158;22;20419;-83
2021/06/25 05:43:31;;;;;;;34.03;25.63;;;16.50;98.30;;;;;;5204742;22;20423;-83
2021/06/25 05:45:36;;;;;;;33.83;25.20;;;16.60;98.30;;;;;;5204283;22;20521;-83
2021/06/25 05:47:40;;;;;;;23.20;17.33;;;16.70;98.30;;;;;;5204400;22;20457;-83
2021/06/25 05:49:43;;;;;;;17.50;13.43;;;16.70;98.30;;;;;;5206311;22;20916;-82
2021/06/25 05:51:46;;;;;;;18.30;15.10;;;16.80;98.30;;;;;;5197528;22;20480;-82
2021/06/25 05:53:48;;;;;;;19.50;15.07;;;16.70;98.30;;;;;;5206525;22;20418;-83
2021/06/25 05:55:52;;;;;;;21.60;15.90;;;16.80;98.30;;;;;;5205591;22;20427;-82
2021/06/25 05:57:55;;;;;;;22.07;16.07;;;16.90;98.30;;;;;;5205440;22;20501;-82
2021/06/25 05:59:58;;;;;;;19.83;13.80;;;17.00;98.30;;;;;;5203583;22;20464;-83
2021/06/25 06:02:03;;;;;;;15.47;12.03;;;17.00;98.30;;;;;;5206085;22;20498;-83
2021/06/25 06:04:06;;;;;;;15.83;13.20;;;17.00;98.30;;;;;;5207280;22;20422;-82
2021/06/25 06:06:09;;;;;;;17.60;14.70;;;17.00;98.30;;;;;;5199229;22;20426;-82
2021/06/25 06:08:12;;;;;;;17.13;12.63;;;17.00;98.30;;;;;;5207754;22;21010;-82
2021/06/25 06:10:16;;;;;;;17.07;12.50;;;17.10;98.30;;;;;;5208062;22;20497;-82
2021/06/25 06:12:20;;;;;;;14.80;12.50;;;17.10;98.30;;;;;;5208300;22;20450;-81
2021/06/25 06:14:25;;;;;;;17.57;12.77;;;17.10;98.30;;;;;;5207029;22;20415;-82
2021/06/25 06:16:28;;;;;;;14.07;11.53;;;17.20;98.30;;;;;;5208354;22;20501;-82
2021/06/25 06:18:36;;;;;;;14.23;12.70;;;17.20;98.30;;;;;;5206171;22;20481;-82
2021/06/25 06:20:39;;;;;;;16.63;12.93;;;17.10;98.30;;;;;;5196215;22;20676;-83
2021/06/25 06:32:11;;;;;;;14.17;10.73;;;17.20;98.30;;;;;;5175668;23;20903;-86
2021/06/25 06:34:16;;;;;;;13.73;11.90;;;17.30;98.30;;;;;;5174962;23;20427;-85
2021/06/25 06:36:24;;;;;;;13.40;11.20;;;17.40;98.30;;;;;;5175351;23;20419;-84
2021/06/25 06:38:31;;;;;;;15.73;10.60;;;17.40;98.30;;;;;;5166328;23;20443;-85
2021/06/25 06:40:35;;;;;;;12.17;10.70;;;17.50;98.30;;;;;;5175161;23;20420;-85
2021/06/25 06:42:38;;;;;;;16.17;11.20;;;17.60;98.30;;;;;;5166534;23;20428;-84
2021/06/25 06:44:41;;;;;;;12.30;11.00;;;17.80;98.30;;;;;;5176307;23;20445;-84
2021/06/25 06:46:44;;;;;;;14.20;11.53;;;17.90;98.30;;;;;;5168570;23;20792;-83
2021/06/25 06:48:47;;;;;;;13.37;11.97;;;18.00;98.30;;;;;;5167514;23;21226;-84
2021/06/25 06:50:55;;;;;;;13.83;11.30;;;18.00;98.30;;;;;;5168464;23;20808;-83
2021/06/25 06:52:58;;;;;;;13.30;11.43;;;18.10;98.30;;;;;;5168112;23;20428;-83
2021/06/25 06:55:01;;;;;;;13.67;10.27;;;18.20;98.30;;;;;;5168504;23;20460;-83
2021/06/25 06:57:04;;;;;;;13.37;10.33;;;18.20;98.30;;;;;;5176144;23;20424;-83
2021/06/25 06:59:07;;;;;;;9.80;8.80;;;18.30;98.30;;;;;;5175751;23;20450;-83
2021/06/25 07:01:11;;;;;;;9.73;8.00;;;18.40;98.30;;;;;;5175027;23;20458;-83
2021/06/25 07:03:31;;;;;;;9.00;7.87;;;18.50;98.30;;;;;;5167292;23;20459;-83
2021/06/25 07:05:34;;;;;;;9.67;7.70;;;18.50;98.30;;;;;;5175443;23;20440;-83
2021/06/25 07:07:38;;;;;;;9.10;8.17;;;18.60;98.30;;;;;;5175298;23;20427;-83
2021/06/25 07:09:43;;;;;;;9.07;7.87;;;18.70;98.30;;;;;;5166841;23;20443;-83
2021/06/25 07:11:46;;;;;;;9.10;7.93;;;18.80;95.80;;;;;;5167996;23;20450;-83
2021/06/25 07:13:49;;;;;;;10.27;8.07;;;18.80;96.00;;;;;;5176867;23;20430;-83
2021/06/25 07:15:52;;;;;;;8.43;7.47;;;18.60;94.80;;;;;;5176952;23;20436;-83
2021/06/25 07:17:55;;;;;;;9.77;8.03;;;18.40;95.90;;;;;;5168464;23;20431;-83
2021/06/25 07:19:58;;;;;;;12.30;7.67;;;18.50;96.60;;;;;;5177559;23;20889;-83
2021/06/25 07:22:01;;;;;;;7.63;6.33;;;18.60;95.60;;;;;;5177292;23;20428;-83
2021/06/25 07:24:06;;;;;;;9.13;6.87;;;18.80;95.00;;;;;;5168134;23;20423;-83
2021/06/25 07:26:09;;;;;;;7.90;6.70;;;18.80;94.70;;;;;;5168365;23;20442;-83
2021/06/25 07:28:11;;;;;;;6.83;5.30;;;19.00;94.90;;;;;;5176477;23;20490;-83
2021/06/25 07:30:16;;;;;;;8.33;6.13;;;18.90;89.80;;;;;;5168758;23;20897;-83
2021/06/25 07:32:19;;;;;;;7.43;6.10;;;18.70;91.50;;;;;;5169244;23;20489;-84
2021/06/25 07:34:22;;;;;;;5.70;5.10;;;18.70;91.70;;;;;;5168020;23;20531;-83
2021/06/25 07:36:25;;;;;;;5.53;4.90;;;18.80;92.70;;;;;;5168024;23;20428;-83
2021/06/25 07:38:28;;;;;;;7.60;4.40;;;19.10;89.80;;;;;;5167749;23;20436;-83
2021/06/25 07:40:32;;;;;;;4.40;3.90;;;19.20;88.30;;;;;;5167672;23;20438;-82
2021/06/25 07:42:36;;;;;;;6.50;5.53;;;19.40;88.00;;;;;;5168249;23;20432;-81
2021/06/25 07:44:38;;;;;;;6.40;4.63;;;19.50;87.60;;;;;;5170356;23;20800;-83
2021/06/25 07:46:41;;;;;;;4.70;4.30;;;19.40;88.00;;;;;;5168795;23;20427;-82
2021/06/25 07:48:44;;;;;;;5.00;4.50;;;19.40;88.20;;;;;;5168221;23;20820;-83
2021/06/25 07:50:47;;;;;;;8.43;4.73;;;19.50;88.50;;;;;;5167923;23;20501;-83
2021/06/25 07:52:50;;;;;;;5.10;4.60;;;19.60;88.70;;;;;;5167989;23;20494;-83
2021/06/25 07:54:53;;;;;;;5.43;4.60;;;19.60;89.60;;;;;;5168678;23;20451;-83
2021/06/25 07:56:57;;;;;;;6.47;4.50;;;19.60;90.80;;;;;;5167977;23;20431;-83
2021/06/25 07:59:00;;;;;;;7.00;5.70;;;19.80;90.10;;;;;;5177175;23;20416;-83
2021/06/25 08:01:03;;;;;;;13.93;5.90;;;19.80;90.20;;;;;;5168525;23;20436;-83
2021/06/25 08:03:07;;;;;;;6.40;5.20;;;19.60;90.80;;;;;;5168676;23;20554;-83
2021/06/25 08:05:11;;;;;;;7.43;5.47;;;19.70;91.50;;;;;;5168667;23;20563;-83
2021/06/25 08:07:14;;;;;;;7.13;6.43;;;19.70;91.20;;;;;;5169506;23;20432;-83
2021/06/25 08:09:17;;;;;;;7.63;5.70;;;19.60;91.60;;;;;;5168700;23;20455;-82
2021/06/25 08:11:20;;;;;;;9.10;5.93;;;19.70;92.00;;;;;;5176769;23;20422;-83
2021/06/25 08:13:24;;;;;;;7.00;6.17;;;19.70;92.00;;;;;;5175574;23;20416;-83
2021/06/25 08:15:27;;;;;;;6.10;5.50;;;19.70;91.70;;;;;;5168144;23;20530;-83
2021/06/25 08:17:30;;;;;;;7.57;6.23;;;19.40;90.80;;;;;;5176648;23;20473;-82
2021/06/25 08:19:33;;;;;;;6.63;6.03;;;19.10;92.10;;;;;;5169675;23;21062;-83
2021/06/25 08:21:36;;;;;;;6.77;6.10;;;18.90;92.90;;;;;;5169439;23;21165;-83
2021/06/25 08:23:39;;;;;;;7.40;6.70;;;18.90;93.20;;;;;;5170172;23;20432;-83
2021/06/25 08:25:42;;;;;;;7.73;6.93;;;19.10;93.10;;;;;;5168184;22;20451;-83
2021/06/25 08:27:45;;;;;;;8.07;7.00;;;19.10;92.90;;;;;;5168791;23;20530;-83
2021/06/25 08:29:49;;;;;;;7.80;7.00;;;19.00;93.40;;;;;;5178075;23;20440;-83
2021/06/25 08:31:52;;;;;;;8.20;5.97;;;19.00;93.90;;;;;;5169779;23;20428;-83
2021/06/25 08:33:55;;;;;;;7.80;6.50;;;19.00;93.90;;;;;;5167420;23;20428;-83
2021/06/25 08:35:58;;;;;;;6.70;6.00;;;19.20;93.90;;;;;;5175438;23;20462;-83
2021/06/25 08:38:00;;;;;;;7.60;5.87;;;19.60;93.20;;;;;;5177750;23;20741;-83
2021/06/25 08:40:06;;;;;;;7.73;6.77;;;19.90;92.10;;;;;;5168515;23;20434;-83
2021/06/25 08:42:09;;;;;;;8.23;6.93;;;19.70;91.90;;;;;;5178067;23;20402;-83
2021/06/25 08:44:12;;;;;;;7.73;6.57;;;19.70;92.20;;;;;;5168982;23;20523;-82
2021/06/25 08:46:17;;;;;;;8.03;6.93;;;19.80;91.90;;;;;;5169243;23;20515;-83
2021/06/25 08:48:25;;;;;;;8.13;7.33;;;19.70;92.30;;;;;;5169028;23;20455;-83
2021/06/25 08:50:29;;;;;;;6.60;5.93;;;19.70;92.50;;;;;;5168520;23;20478;-83
2021/06/25 08:52:32;;;;;;;7.47;6.43;;;19.80;93.00;;;;;;5168738;23;20424;-83
2021/06/25 08:54:35;;;;;;;9.50;6.33;;;19.90;93.10;;;;;;5169088;23;20448;-82
2021/06/25 08:56:38;;;;;;;7.53;5.70;;;20.20;92.30;;;;;;5169335;23;20431;-82
2021/06/25 08:58:41;;;;;;;8.27;7.40;;;20.40;91.00;;;;;;5168912;23;20523;-83
2021/06/25 09:00:44;;;;;;;8.33;7.43;;;20.30;90.50;;;;;;5169332;23;20477;-82
2021/06/25 09:02:49;;;;;;;8.30;7.50;;;20.30;90.40;;;;;;5175664;23;20467;-83
2021/06/25 09:04:51;;;;;;;6.90;6.20;;;20.30;90.30;;;;;;5167529;23;20549;-83
2021/06/25 09:06:55;;;;;;;7.80;7.00;;;20.50;89.80;;;;;;5167945;23;20474;-83
2021/06/25 09:09:13;;;;;;;7.73;7.00;;;20.30;90.60;;;;;;5165874;23;20791;-83
2021/06/25 09:11:22;;;;;;;8.80;7.90;;;20.40;90.30;;;;;;5167383;23;20572;-83
2021/06/25 09:13:36;;;;;;;8.03;7.23;;;20.60;89.50;;;;;;5167121;23;20415;-83
2021/06/25 09:15:40;;;;;;;8.67;7.43;;;20.80;89.10;;;;;;5167296;23;20773;-83
2021/06/25 09:17:56;;;;;;;9.63;7.77;;;20.80;88.60;;;;;;5177393;23;20423;-83
2021/06/25 09:19:59;;;;;;;10.57;7.80;;;20.40;89.00;;;;;;5169218;23;20413;-83
2021/06/25 09:22:03;;;;;;;7.83;7.03;;;20.20;90.30;;;;;;5167891;23;20481;-83
2021/06/25 09:24:17;;;;;;;10.63;6.90;;;20.40;90.60;;;;;;5168583;23;20428;-83
2021/06/25 09:26:23;;;;;;;7.80;7.10;;;20.60;90.40;;;;;;5166840;22;20937;-83
2021/06/25 09:28:28;;;;;;;7.37;6.50;;;20.60;89.70;;;;;;5175649;23;20442;-83
2021/06/25 09:30:43;;;;;;;8.83;7.93;;;20.60;90.00;;;;;;5176749;23;20451;-83
2021/06/25 09:32:49;;;;;;;9.07;8.27;;;20.60;88.60;;;;;;5168036;23;20416;-83
2021/06/25 09:34:56;;;;;;;7.57;6.83;;;20.50;89.00;;;;;;5178700;23;20462;-83
2021/06/25 09:37:02;;;;;;;8.57;7.77;;;20.50;89.90;;;;;;5184626;23;20431;-83
2021/06/25 09:39:07;;;;;;;9.20;7.17;;;20.70;89.20;;;;;;5169277;23;20420;-82
2021/06/25 09:41:18;;;;;;;7.27;6.53;;;20.60;89.30;;;;;;5170838;23;20415;-82
2021/06/25 09:43:21;;;;;;;7.60;6.87;;;20.80;89.90;;;;;;5173347;23;20442;-82
2021/06/25 09:45:26;;;;;;;8.03;7.23;;;21.10;88.60;;;;;;5173826;23;20456;-82
2021/06/25 09:47:30;;;;;;;6.70;6.10;;;21.10;87.70;;;;;;5171315;23;20424;-82
2021/06/25 09:49:33;;;;;;;6.80;6.10;;;21.10;88.50;;;;;;5171143;23;20423;-83
2021/06/25 09:51:38;;;;;;;7.23;6.53;;;21.30;87.70;;;;;;5172086;23;20451;-84
2021/06/25 09:54:02;;;;;;;11.87;9.17;;;21.00;87.80;;;;;;5174208;23;20420;-82
2021/06/25 09:56:07;;;;;;;11.47;10.17;;;20.50;88.40;;;;;;5173687;23;20415;-81
2021/06/25 09:58:26;;;;;;;7.90;7.20;;;20.60;89.50;;;;;;5165670;23;20424;-82
2021/06/25 10:03:13;;;;;;;7.33;6.60;;;21.10;86.90;;;;;;5173197;22;20466;-82
2021/06/25 10:05:17;;;;;;;7.90;7.10;;;21.20;86.90;;;;;;5166784;23;20456;-82
2021/06/25 10:07:22;;;;;;;8.37;7.57;;;20.70;87.70;;;;;;5166338;23;20428;-81
2021/06/25 10:09:25;;;;;;;7.37;6.50;;;20.30;88.80;;;;;;5166497;23;20412;-81
2021/06/25 10:11:30;;;;;;;7.87;7.07;;;20.30;90.00;;;;;;5166215;23;20451;-81
2021/06/25 10:13:36;;;;;;;6.87;6.17;;;20.60;89.80;;;;;;5166277;23;20873;-82
2021/06/25 10:15:39;;;;;;;20.13;15.30;;;21.20;89.70;;;;;;5166504;23;20936;-82
2021/06/25 10:17:42;;;;;;;17.13;15.30;;;21.70;88.10;;;;;;5174580;23;20908;-82
2021/06/25 10:19:47;;;;;;;11.17;10.07;;;21.90;86.70;;;;;;5166642;23;20984;-82
2021/06/25 10:21:52;;;;;;;11.83;10.20;;;22.00;86.20;;;;;;5166172;23;20427;-82
2021/06/25 10:23:58;;;;;;;8.57;7.53;;;21.90;86.20;;;;;;5166433;23;20431;-82
2021/06/25 10:26:06;;;;;;;8.53;7.83;;;21.90;86.30;;;;;;5166698;23;20435;-82
2021/06/25 10:28:09;;;;;;;8.37;7.60;;;21.80;85.30;;;;;;5176306;23;20735;-81
2021/06/25 10:30:13;;;;;;;8.53;7.73;;;21.40;86.10;;;;;;5167666;23;20429;-82
2021/06/25 10:32:18;;;;;;;8.10;7.40;;;21.60;86.80;;;;;;5167933;23;20450;-82
2021/06/25 10:34:21;;;;;;;8.77;7.97;;;21.70;86.20;;;;;;5167492;23;20501;-81
2021/06/25 10:36:27;;;;;;;8.50;7.47;;;21.60;86.40;;;;;;5167889;23;20432;-81
2021/06/25 10:38:31;;;;;;;8.63;6.83;;;21.60;86.00;;;;;;5175289;22;20975;-82
2021/06/25 10:40:36;;;;;;;8.93;8.03;;;21.60;86.70;;;;;;5175468;23;20422;-81
2021/06/25 10:42:41;;;;;;;9.70;7.93;;;21.50;85.50;;;;;;5167164;23;20487;-82
2021/06/25 10:44:46;;;;;;;7.30;6.60;;;21.20;86.20;;;;;;5175369;23;20950;-82
2021/06/25 10:46:53;;;;;;;7.80;7.00;;;21.20;87.70;;;;;;5175617;23;20448;-81
2021/06/25 10:48:58;;;;;;;12.13;7.03;;;21.20;86.60;;;;;;5167006;23;20510;-81
2021/06/25 10:51:22;;;;;;;7.70;7.00;;;20.80;87.20;;;;;;5176196;23;20443;-81